Time;durP1;ratioP1;P1;durP2;ratioP2;P2;SDS_P1;SDS_P2;PMS_P1;PMS_P2;Temp;Humidity;BMP_temperature;BMP_pressure;BME280_temperature;BME280_humidity;BME280_pressure;Samples;Min_cycle;Max_cycle;Signal;HPM_P1;HPM_P2
2022/06/13 00:02:25;;;;;;;7.18;4.05;;;;;;;;;;5093440;28;20080;-52
2022/06/13 00:04:51;;;;;;;10.40;4.07;;;13.70;99.90;;;;;;5093232;28;20049;-55
2022/06/13 00:07:16;;;;;;;9.35;4.45;;;13.80;99.90;;;;;;5093566;28;20115;-55
2022/06/13 00:09:42;;;;;;;9.77;4.57;;;13.80;99.90;;;;;;5093462;28;20051;-52
2022/06/13 00:12:08;;;;;;;9.68;4.45;;;13.80;99.90;;;;;;5093006;28;20506;-53
2022/06/13 00:14:33;;;;;;;10.18;4.63;;;13.70;99.90;;;;;;5093257;28;20165;-53
2022/06/13 00:17:00;;;;;;;10.98;4.43;;;13.60;99.90;;;;;;5058637;28;20040;-49
2022/06/13 00:19:26;;;;;;;9.87;4.37;;;13.60;99.90;;;;;;5093033;28;20098;-50
2022/06/13 00:21:51;;;;;;;11.48;5.13;;;13.60;99.90;;;;;;5093009;28;20498;-52
2022/06/13 00:24:17;;;;;;;10.48;4.65;;;13.60;99.90;;;;;;5093107;28;20063;-48
2022/06/13 00:26:43;;;;;;;9.50;4.22;;;13.50;99.90;;;;;;5093047;28;20059;-49
2022/06/13 00:29:08;;;;;;;13.18;4.97;;;13.60;99.90;;;;;;5093047;28;20048;-49
2022/06/13 00:31:34;;;;;;;9.82;5.00;;;13.60;99.90;;;;;;5093050;28;20119;-48
2022/06/13 00:33:59;;;;;;;8.90;4.57;;;13.60;99.90;;;;;;5093021;28;20041;-50
2022/06/13 00:36:25;;;;;;;9.40;4.35;;;13.60;99.90;;;;;;5075159;28;20044;-51
2022/06/13 00:38:52;;;;;;;12.00;4.57;;;13.60;99.90;;;;;;5092972;28;20040;-50
2022/06/13 00:41:23;;;;;;;13.85;5.18;;;13.60;99.90;;;;;;5092945;28;20044;-50
2022/06/13 00:43:49;;;;;;;10.85;4.97;;;13.70;99.90;;;;;;5092922;28;20567;-48
2022/06/13 00:46:20;;;;;;;11.93;4.85;;;13.70;99.90;;;;;;5092745;28;20486;-50
2022/06/13 00:48:48;;;;;;;10.27;4.28;;;13.70;99.90;;;;;;5074502;28;20119;-51
2022/06/13 00:51:14;;;;;;;7.45;4.30;;;;;;;;;;5092850;28;20124;-50
2022/06/13 00:53:41;;;;;;;9.52;4.28;;;13.70;99.90;;;;;;5092570;28;20379;-50
2022/06/13 00:56:14;;;;;;;11.75;4.55;;;13.70;99.90;;;;;;5092754;28;20080;-51
2022/06/13 00:58:45;;;;;;;10.90;4.45;;;13.70;99.90;;;;;;5092869;28;20036;-50
2022/06/13 01:01:11;;;;;;;10.07;5.32;;;13.80;99.90;;;;;;5092683;28;20482;-52
2022/06/13 01:03:37;;;;;;;10.98;4.65;;;13.80;99.90;;;;;;5092274;28;20043;-52
2022/06/13 01:06:05;;;;;;;11.52;4.25;;;13.80;99.90;;;;;;5092823;28;20040;-51
2022/06/13 01:08:32;;;;;;;;;;;13.80;99.90;;;;;;5075200;28;20498;-50
2022/06/13 01:11:17;;;;;;;10.85;4.32;;;13.70;99.90;;;;;;5095889;28;19972;-51
2022/06/13 01:13:52;;;;;;;9.27;5.15;;;13.80;99.90;;;;;;5096365;28;20127;-49
2022/06/13 01:16:33;;;;;;;11.23;4.72;;;13.90;99.90;;;;;;5096866;28;20126;-48
2022/06/13 01:19:31;;;;;;;15.02;5.18;;;13.80;99.90;;;;;;5096494;28;20098;-51
2022/06/13 01:21:57;;;;;;;13.57;5.03;;;13.80;99.90;;;;;;5096291;28;20379;-50
2022/06/13 01:24:42;;;;;;;9.70;4.47;;;13.80;99.90;;;;;;5096185;28;20046;-49
2022/06/13 01:27:20;;;;;;;9.40;4.97;;;13.80;99.90;;;;;;5096512;28;20071;-52
2022/06/13 01:29:54;;;;;;;;;;;13.80;99.90;;;;;;5096781;28;20193;-48
2022/06/13 01:32:23;;;;;;;13.65;4.68;;;13.80;99.90;;;;;;5096113;28;19919;-49
2022/06/13 01:35:01;;;;;;;14.00;5.40;;;13.80;99.90;;;;;;5095965;28;20036;-51
2022/06/13 01:37:45;;;;;;;12.23;5.00;;;13.80;99.90;;;;;;5096243;28;20048;-49
2022/06/13 01:40:46;;;;;;;12.30;5.57;;;13.80;99.90;;;;;;5096132;28;20076;-48
2022/06/13 01:43:34;;;;;;;10.73;4.25;;;13.80;99.90;;;;;;5096090;28;20444;-49
2022/06/13 01:46:21;;;;;;;11.30;4.15;;;13.80;99.90;;;;;;5096000;28;20051;-48
2022/06/13 01:48:59;;;;;;;10.00;3.90;;;13.70;99.90;;;;;;5077846;28;20040;-54
2022/06/13 01:51:36;;;;;;;10.35;4.60;;;13.70;99.90;;;;;;5108651;22;20059;-52
2022/06/13 01:54:34;;;;;;;9.90;4.30;;;13.70;99.90;;;;;;5127511;27;20050;-53
2022/06/13 01:57:12;;;;;;;12.30;4.82;;;13.70;99.90;;;;;;5119788;27;20051;-51
2022/06/13 02:00:01;;;;;;;9.90;4.38;;;13.70;99.90;;;;;;5118838;27;20496;-51
2022/06/13 02:02:42;;;;;;;9.38;4.35;;;13.60;99.90;;;;;;5136647;27;20074;-50
2022/06/13 02:05:15;;;;;;;8.07;3.92;;;13.70;99.90;;;;;;5136558;27;20043;-52
2022/06/13 02:07:47;;;;;;;11.07;4.63;;;13.70;99.90;;;;;;5136235;27;20043;-51
2022/06/13 02:10:20;;;;;;;13.45;4.68;;;13.70;99.90;;;;;;5115884;28;20035;-48
2022/06/13 02:12:51;;;;;;;11.02;4.68;;;13.60;99.90;;;;;;5116096;28;20435;-48
2022/06/13 02:15:28;;;;;;;9.80;4.47;;;13.60;99.90;;;;;;5028513;28;20497;-52
2022/06/13 02:17:59;;;;;;;8.88;4.47;;;13.60;99.90;;;;;;5115046;28;20065;-48
2022/06/13 02:20:31;;;;;;;9.57;4.97;;;13.60;99.90;;;;;;5114310;28;20050;-48
2022/06/13 02:23:06;;;;;;;13.27;4.75;;;13.60;99.90;;;;;;5115204;28;20438;-49
2022/06/13 02:25:38;;;;;;;9.25;4.97;;;13.60;99.90;;;;;;5121107;27;20159;-50
2022/06/13 02:28:13;;;;;;;9.55;4.70;;;13.60;99.90;;;;;;5136174;27;20043;-48
2022/06/13 02:31:21;;;;;;;8.85;4.25;;;13.50;99.90;;;;;;5135951;27;20080;-50
2022/06/13 02:33:53;;;;;;;7.43;4.32;;;13.60;99.90;;;;;;5134411;27;20073;-49
2022/06/13 02:36:36;;;;;;;10.13;4.70;;;13.50;99.90;;;;;;5135892;27;20626;-52
2022/06/13 02:39:07;;;;;;;8.98;4.63;;;13.50;99.90;;;;;;5135797;27;20044;-50
2022/06/13 02:41:45;;;;;;;9.02;4.38;;;13.50;99.90;;;;;;5135817;27;20135;-50
2022/06/13 02:44:39;;;;;;;9.68;4.10;;;13.50;99.90;;;;;;5135953;27;20114;-51
2022/06/13 02:47:12;;;;;;;7.50;4.00;;;13.50;99.90;;;;;;5047327;27;20088;-52
2022/06/13 02:50:07;;;;;;;8.80;4.22;;;13.50;99.90;;;;;;5135432;27;20039;-51
2022/06/13 02:52:46;;;;;;;10.10;4.35;;;13.50;99.90;;;;;;5132862;27;20635;-51
2022/06/13 02:55:13;;;;;;;6.10;3.78;;;13.50;99.90;;;;;;5135468;27;20043;-52
2022/06/13 02:58:05;;;;;;;7.65;3.88;;;13.50;99.90;;;;;;5135634;27;20047;-52
2022/06/13 03:00:36;;;;;;;7.05;3.95;;;13.40;99.90;;;;;;5122748;27;20538;-50
2022/06/13 03:03:25;;;;;;;9.80;4.60;;;13.40;99.90;;;;;;5114635;28;20490;-51
2022/06/13 03:06:00;;;;;;;7.63;4.53;;;13.40;99.90;;;;;;5114291;28;20047;-50
2022/06/13 03:08:44;;;;;;;7.65;4.03;;;13.40;99.90;;;;;;5114682;28;20047;-51
2022/06/13 03:11:34;;;;;;;11.27;4.72;;;13.40;99.90;;;;;;5114664;28;20440;-50
2022/06/13 03:14:21;;;;;;;8.65;4.47;;;13.30;99.90;;;;;;5114651;28;20635;-51
2022/06/13 03:17:24;;;;;;;8.15;4.53;;;13.40;99.90;;;;;;5114547;28;20040;-50
2022/06/13 03:20:01;;;;;;;7.70;4.43;;;13.40;99.90;;;;;;5079255;28;20073;-52
2022/06/13 03:22:38;;;;;;;10.23;4.60;;;13.30;99.90;;;;;;5114457;28;20051;-54
2022/06/13 03:25:25;;;;;;;11.07;4.72;;;13.30;99.90;;;;;;5114304;28;20044;-53
2022/06/13 03:28:08;;;;;;;9.00;4.68;;;13.30;99.90;;;;;;5114447;28;20068;-51
2022/06/13 03:30:38;;;;;;;8.63;4.90;;;13.30;99.90;;;;;;5114384;28;20039;-48
2022/06/13 03:35:57;;;;;;;10.55;4.90;;;13.30;99.90;;;;;;5114425;28;20055;-48
2022/06/13 03:38:28;;;;;;;8.35;5.25;;;13.30;99.90;;;;;;5114258;28;20052;-50
2022/06/13 03:40:57;;;;;;;11.20;5.18;;;13.30;99.90;;;;;;5113997;28;20570;-48
2022/06/13 03:43:31;;;;;;;11.80;5.88;;;13.30;99.90;;;;;;5114073;28;20058;-49
2022/06/13 03:46:38;;;;;;;8.55;5.65;;;13.30;99.90;;;;;;5113952;28;20046;-48
2022/06/13 03:49:18;;;;;;;10.48;5.53;;;13.30;99.90;;;;;;5113297;28;20139;-49
2022/06/13 03:51:48;;;;;;;12.40;5.75;;;13.30;99.90;;;;;;5113525;28;20386;-47
2022/06/13 03:54:29;;;;;;;12.00;5.93;;;13.30;99.90;;;;;;5113954;28;20047;-50
2022/06/13 03:57:12;;;;;;;11.65;6.07;;;13.40;99.90;;;;;;5113696;28;20402;-48
2022/06/13 03:59:49;;;;;;;11.30;5.93;;;13.40;99.90;;;;;;5113990;28;20039;-47
2022/06/13 04:02:17;;;;;;;;;;;13.40;99.90;;;;;;5114240;28;20036;-47
2022/06/13 04:04:48;;;;;;;11.95;6.72;;;13.50;99.90;;;;;;5113864;28;19920;-50
2022/06/13 04:07:15;;;;;;;12.38;6.07;;;;;;;;;;5113737;28;20043;-48
2022/06/13 04:09:49;;;;;;;10.48;6.05;;;13.50;99.90;;;;;;5113225;28;20043;-48
2022/06/13 04:12:37;;;;;;;14.95;7.18;;;13.50;99.90;;;;;;5113696;28;20112;-48
2022/06/13 04:15:13;;;;;;;10.98;6.82;;;13.60;99.90;;;;;;5113528;28;20050;-49
2022/06/13 04:17:57;;;;;;;14.50;7.07;;;;;;;;;;5078617;28;20047;-48
2022/06/13 04:20:55;;;;;;;18.85;7.47;;;13.60;99.90;;;;;;5113554;28;20046;-49
2022/06/13 04:23:42;;;;;;;13.38;7.43;;;13.70;99.90;;;;;;5091202;28;20047;-50
2022/06/13 04:26:26;;;;;;;17.90;6.93;;;13.70;99.90;;;;;;5113770;28;20039;-47
2022/06/13 04:28:59;;;;;;;11.60;7.10;;;13.70;99.90;;;;;;5113477;28;20043;-49
2022/06/13 04:31:27;;;;;;;15.60;7.22;;;13.80;99.90;;;;;;5113148;28;20044;-52
2022/06/13 04:34:24;;;;;;;13.80;6.68;;;13.80;99.90;;;;;;5113344;28;20088;-51
2022/06/13 04:36:53;;;;;;;14.40;7.75;;;13.90;99.90;;;;;;5098395;28;20108;-52
2022/06/13 04:39:23;;;;;;;15.57;7.18;;;;;;;;;;5113293;28;20044;-48
2022/06/13 04:41:50;;;;;;;13.75;6.93;;;14.10;99.90;;;;;;5113270;28;20036;-49
2022/06/13 04:44:18;;;;;;;;;;;14.20;99.90;;;;;;5114098;28;20592;-47
2022/06/13 04:46:44;;;;;;;;;;;14.30;99.90;;;;;;5118034;28;19919;-51
2022/06/13 04:49:27;;;;;;;15.38;7.53;;;14.50;99.90;;;;;;5117702;28;19927;-48
2022/06/13 04:51:55;;;;;;;15.80;7.65;;;15.20;99.90;;;;;;5117287;28;20047;-48
2022/06/13 04:54:26;;;;;;;14.25;8.40;;;15.70;99.90;;;;;;5117829;28;20048;-48
2022/06/13 04:56:57;;;;;;;15.10;7.95;;;16.00;99.90;;;;;;5117198;28;20505;-49
2022/06/13 04:59:22;;;;;;;13.05;7.15;;;16.10;99.90;;;;;;5117477;28;20047;-48
2022/06/13 05:01:50;;;;;;;14.00;7.45;;;16.20;99.90;;;;;;5116690;28;20044;-51
2022/06/13 05:04:19;;;;;;;16.17;7.70;;;16.70;99.90;;;;;;5117219;28;20049;-48
2022/06/13 05:06:48;;;;;;;15.15;8.40;;;17.20;99.90;;;;;;5117183;28;20040;-48
2022/06/13 05:09:23;;;;;;;12.75;7.20;;;17.40;99.90;;;;;;5098915;28;20043;-49
2022/06/13 05:12:09;;;;;;;16.70;7.25;;;17.30;99.90;;;;;;5117089;28;20036;-48
2022/06/13 05:15:01;;;;;;;14.27;7.78;;;17.20;99.90;;;;;;5116987;28;20501;-48
2022/06/13 05:17:51;;;;;;;13.65;6.80;;;17.40;99.90;;;;;;5108054;28;20489;-48
2022/06/13 05:20:23;;;;;;;13.98;7.03;;;17.60;99.90;;;;;;5117017;28;20042;-48
2022/06/13 05:23:07;;;;;;;11.73;6.95;;;18.20;99.90;;;;;;5116958;28;20397;-51
2022/06/13 05:25:35;;;;;;;13.68;7.28;;;18.60;99.90;;;;;;5116832;28;20050;-48
2022/06/13 05:28:01;;;;;;;19.02;7.45;;;18.80;99.90;;;;;;5116674;28;20035;-50
2022/06/13 05:30:27;;;;;;;17.33;6.82;;;19.40;99.90;;;;;;5116789;28;20442;-48
2022/06/13 05:32:55;;;;;;;12.00;7.30;;;20.30;99.90;;;;;;5116586;28;20126;-50
2022/06/13 05:35:27;;;;;;;12.57;6.60;;;21.20;99.90;;;;;;5116582;28;20114;-49
2022/06/13 05:37:54;;;;;;;13.15;7.03;;;21.40;99.90;;;;;;5116651;28;20047;-48
2022/06/13 05:40:21;;;;;;;14.35;7.18;;;22.30;99.90;;;;;;5116458;28;20088;-49
2022/06/13 05:42:47;;;;;;;12.77;6.35;;;21.50;99.90;;;;;;5115929;28;20050;-49
2022/06/13 05:45:14;;;;;;;13.07;6.32;;;20.80;99.90;;;;;;5116462;28;20110;-49
2022/06/13 05:47:42;;;;;;;12.38;6.20;;;20.30;99.90;;;;;;5098345;28;20035;-52
2022/06/13 05:50:23;;;;;;;12.73;6.10;;;19.80;99.90;;;;;;5116254;28;20043;-51
2022/06/13 05:52:50;;;;;;;11.50;6.60;;;19.50;99.90;;;;;;5115072;28;20051;-47
2022/06/13 05:55:15;;;;;;;10.35;5.82;;;19.30;99.90;;;;;;5114769;28;20055;-52
2022/06/13 05:57:41;;;;;;;11.23;5.28;;;19.00;99.90;;;;;;5115223;28;20392;-49
2022/06/13 06:00:15;;;;;;;10.13;5.25;;;20.20;99.90;;;;;;5114968;28;20035;-49
2022/06/13 06:02:41;;;;;;;9.90;5.13;;;20.90;99.90;;;;;;5114971;28;20493;-48
2022/06/13 06:05:07;;;;;;;11.85;5.60;;;22.30;99.90;;;;;;5114957;28;20044;-48
2022/06/13 06:07:33;;;;;;;9.07;4.28;;;22.70;99.90;;;;;;5114654;28;20465;-48
2022/06/13 06:10:00;;;;;;;10.02;4.00;;;23.40;99.90;;;;;;5114961;28;20047;-49
2022/06/13 06:12:26;;;;;;;7.30;3.50;;;23.40;96.30;;;;;;5114833;28;20043;-50
2022/06/13 06:14:51;;;;;;;7.20;3.20;;;23.80;96.50;;;;;;5114845;28;20378;-48
2022/06/13 06:17:17;;;;;;;5.90;2.88;;;24.40;95.90;;;;;;5114578;28;20040;-53
2022/06/13 06:19:42;;;;;;;8.30;3.15;;;24.30;91.10;;;;;;5114594;28;20063;-49
2022/06/13 06:22:08;;;;;;;8.73;2.83;;;24.50;87.70;;;;;;5114495;28;20053;-48
2022/06/13 06:24:33;;;;;;;5.88;2.45;;;24.80;88.70;;;;;;5114641;28;20043;-51
2022/06/13 06:26:59;;;;;;;7.05;2.67;;;25.10;86.30;;;;;;5114701;28;20051;-53
2022/06/13 06:29:25;;;;;;;7.28;2.88;;;25.20;82.80;;;;;;5114543;28;20031;-51
2022/06/13 06:31:50;;;;;;;6.10;2.47;;;25.30;79.50;;;;;;5114382;28;20088;-52
2022/06/13 06:34:17;;;;;;;6.10;2.53;;;24.20;78.20;;;;;;5096264;28;20055;-53
2022/06/13 06:36:42;;;;;;;5.78;2.45;;;23.40;80.80;;;;;;5113894;28;20051;-53
2022/06/13 06:39:08;;;;;;;4.95;2.10;;;23.40;81.10;;;;;;5114535;28;20046;-51
2022/06/13 06:41:33;;;;;;;4.70;2.22;;;22.90;80.90;;;;;;5114398;28;20079;-48
2022/06/13 06:43:59;;;;;;;7.07;2.30;;;23.00;81.90;;;;;;5113502;28;20071;-50
2022/06/13 06:46:24;;;;;;;5.68;2.08;;;23.20;83.80;;;;;;5114367;28;20055;-50
2022/06/13 06:48:51;;;;;;;6.60;1.70;;;23.00;80.00;;;;;;5113496;28;20046;-52
2022/06/13 06:51:18;;;;;;;3.47;1.63;;;23.30;82.50;;;;;;5074343;28;1047916;-48
2022/06/13 07:01:59;;;;;;;5.25;1.70;;;24.30;73.80;;;;;;5094672;28;20044;-50
2022/06/13 07:04:25;;;;;;;3.88;1.70;;;23.10;74.30;;;;;;5094535;28;20105;-49
2022/06/13 07:06:50;;;;;;;3.22;1.33;;;23.60;78.50;;;;;;5093741;28;20413;-48
2022/06/13 07:09:16;;;;;;;6.50;1.60;;;23.20;75.40;;;;;;5094365;28;20055;-49
2022/06/13 07:11:54;;;;;;;5.90;1.50;;;23.70;78.30;;;;;;5094206;28;20043;-52
2022/06/13 07:14:29;;;;;;;6.53;1.85;;;24.00;75.70;;;;;;5094229;28;20052;-50
2022/06/13 07:16:58;;;;;;;4.90;1.45;;;24.20;74.00;;;;;;5094382;28;20067;-53
2022/06/13 07:19:23;;;;;;;4.72;1.90;;;24.30;74.30;;;;;;5094191;28;20047;-52
2022/06/13 07:21:49;;;;;;;5.32;1.92;;;23.50;73.60;;;;;;5094432;28;20395;-48
2022/06/13 07:24:15;;;;;;;4.63;1.70;;;22.70;77.00;;;;;;5094096;28;20394;-48
2022/06/13 07:26:41;;;;;;;6.05;1.30;;;21.70;78.30;;;;;;5075904;28;20406;-49
2022/06/13 07:29:06;;;;;;;1.55;0.98;;;20.00;89.40;;;;;;5075827;28;20054;-49
2022/06/13 07:31:54;;;;;;;2.65;0.70;;;18.50;97.90;;;;;;5093927;28;20040;-48
2022/06/13 07:34:23;;;;;;;2.75;0.65;;;17.10;99.90;;;;;;5075649;28;20056;-48
2022/06/13 07:36:51;;;;;;;2.13;0.80;;;16.40;99.90;;;;;;5093804;28;20040;-47
2022/06/13 07:39:17;;;;;;;1.70;0.68;;;15.90;99.90;;;;;;5093800;28;20047;-48
2022/06/13 07:41:44;;;;;;;1.58;0.70;;;15.70;99.90;;;;;;5059213;28;20072;-47
2022/06/13 07:44:13;;;;;;;1.30;0.50;;;;;;;;;;5093675;28;20036;-49
2022/06/13 07:46:39;;;;;;;1.05;0.50;;;14.90;99.90;;;;;;5093701;28;20117;-47
2022/06/13 07:49:04;;;;;;;1.70;1.00;;;15.20;99.90;;;;;;5075348;28;20103;-50
2022/06/13 07:51:30;;;;;;;2.35;0.82;;;15.10;99.90;;;;;;5096632;28;20056;-50
2022/06/13 07:53:56;;;;;;;2.58;0.80;;;;;;;;;;5113532;28;20131;-49
2022/06/13 07:56:25;;;;;;;2.28;1.10;;;15.40;99.90;;;;;;5113995;28;20043;-47
2022/06/13 07:58:52;;;;;;;3.60;1.10;;;16.00;99.90;;;;;;5095596;28;20075;-48
2022/06/13 08:01:19;;;;;;;2.97;1.38;;;16.50;99.90;;;;;;5113891;28;20093;-48
2022/06/13 08:03:45;;;;;;;3.28;1.20;;;17.10;99.90;;;;;;5095392;28;20043;-48
2022/06/13 08:06:11;;;;;;;3.65;1.10;;;17.40;99.90;;;;;;5113380;28;20093;-51
2022/06/13 08:08:40;;;;;;;3.08;1.00;;;17.50;99.90;;;;;;5095152;28;20040;-48
2022/06/13 08:11:07;;;;;;;3.97;1.17;;;17.30;99.90;;;;;;5113735;28;20115;-52
2022/06/13 08:13:35;;;;;;;2.13;1.10;;;17.20;99.90;;;;;;5113742;28;20039;-51
2022/06/13 08:16:01;;;;;;;3.95;1.48;;;17.50;99.90;;;;;;5113997;28;20097;-48
2022/06/13 08:18:28;;;;;;;3.63;1.52;;;17.70;99.90;;;;;;5113463;28;20041;-48
2022/06/13 08:20:54;;;;;;;5.83;1.23;;;17.90;99.90;;;;;;5113563;28;20047;-49
2022/06/13 08:23:21;;;;;;;2.88;1.40;;;18.30;99.90;;;;;;5095453;28;20062;-48
2022/06/13 08:25:48;;;;;;;4.95;1.40;;;18.10;99.90;;;;;;5094609;28;20035;-47
2022/06/13 08:28:14;;;;;;;3.00;1.45;;;18.50;99.90;;;;;;5113470;28;20044;-48
2022/06/13 08:30:49;;;;;;;6.10;1.60;;;18.80;99.90;;;;;;5113357;28;20043;-50
2022/06/13 08:33:15;;;;;;;5.88;1.42;;;18.90;99.90;;;;;;5094730;28;20044;-50
2022/06/13 08:35:41;;;;;;;5.57;1.60;;;19.10;99.90;;;;;;5113228;28;20616;-50
2022/06/13 08:38:07;;;;;;;5.30;1.98;;;19.10;99.90;;;;;;5113520;28;20114;-52
2022/06/13 08:41:18;;;;;;;6.28;2.35;;;19.30;99.90;;;;;;5113414;28;20375;-48
2022/06/13 08:43:50;;;;;;;10.20;3.00;;;19.00;99.90;;;;;;5113032;28;20096;-48
2022/06/13 08:46:58;;;;;;;3.38;1.23;;;19.60;99.90;;;;;;5112958;28;20065;-48
2022/06/13 08:49:37;;;;;;;6.95;1.40;;;19.80;99.90;;;;;;5112759;28;20371;-48
2022/06/13 08:52:14;;;;;;;4.63;1.38;;;19.70;99.90;;;;;;5112503;28;20104;-48
2022/06/13 08:54:41;;;;;;;;;;;19.30;99.90;;;;;;5113056;28;20048;-48
2022/06/13 08:57:11;;;;;;;6.82;2.08;;;18.80;99.90;;;;;;5113212;28;19919;-48
2022/06/13 08:59:39;;;;;;;5.60;2.08;;;18.00;99.90;;;;;;5112546;28;20043;-48
2022/06/13 09:02:10;;;;;;;5.18;1.80;;;18.00;99.90;;;;;;5113109;28;20580;-49
2022/06/13 09:04:51;;;;;;;5.13;1.95;;;17.60;99.90;;;;;;5113104;28;20048;-48
2022/06/13 09:07:48;;;;;;;4.72;1.75;;;17.60;99.90;;;;;;5112686;28;20473;-48
2022/06/13 09:10:25;;;;;;;3.60;1.55;;;17.60;99.90;;;;;;5112353;28;20537;-47
2022/06/13 09:12:56;;;;;;;7.35;1.67;;;17.90;99.90;;;;;;5112908;28;20051;-48
2022/06/13 09:15:31;;;;;;;7.13;1.88;;;18.20;99.90;;;;;;5112690;28;20047;-52
2022/06/13 09:18:25;;;;;;;4.47;1.23;;;18.30;99.90;;;;;;5094601;28;20078;-48
2022/06/13 09:21:10;;;;;;;6.45;1.75;;;18.40;99.90;;;;;;5112771;28;20052;-50
2022/06/13 09:23:53;;;;;;;4.70;1.38;;;18.40;99.90;;;;;;5112346;28;20047;-51
2022/06/13 09:26:24;;;;;;;5.05;1.65;;;18.60;99.90;;;;;;5112759;28;20071;-48
2022/06/13 09:29:04;;;;;;;5.18;1.45;;;19.20;99.90;;;;;;5113061;28;20058;-47
2022/06/13 09:31:50;;;;;;;3.67;1.40;;;19.50;99.90;;;;;;5115093;28;20039;-49
2022/06/13 09:34:28;;;;;;;6.93;1.50;;;19.60;99.90;;;;;;5116156;28;20071;-51
2022/06/13 09:37:04;;;;;;;4.93;1.05;;;19.30;99.90;;;;;;5116493;28;20055;-50
2022/06/13 09:39:30;;;;;;;4.45;0.95;;;19.10;99.90;;;;;;5116476;28;20044;-49
2022/06/13 09:42:08;;;;;;;3.58;1.15;;;19.00;99.90;;;;;;5116262;28;20409;-48
2022/06/13 09:44:47;;;;;;;4.05;1.10;;;19.40;99.90;;;;;;5116036;28;20043;-47
2022/06/13 09:47:30;;;;;;;4.55;1.15;;;19.60;99.90;;;;;;5116180;28;20071;-50
2022/06/13 09:50:09;;;;;;;4.65;1.33;;;20.00;99.90;;;;;;5116374;28;20055;-48
2022/06/13 09:52:56;;;;;;;3.17;1.02;;;19.70;99.90;;;;;;5115518;28;20100;-48
2022/06/13 09:55:35;;;;;;;4.63;0.98;;;19.70;99.90;;;;;;5116318;28;20089;-47
2022/06/13 09:58:28;;;;;;;4.63;1.00;;;19.40;99.90;;;;;;5115887;28;20044;-48
2022/06/13 10:01:06;;;;;;;6.57;1.17;;;19.80;99.90;;;;;;5115881;28;20051;-51
2022/06/13 10:03:49;;;;;;;3.22;1.13;;;20.00;99.90;;;;;;5115853;28;20040;-48
2022/06/13 10:06:46;;;;;;;4.07;1.05;;;19.90;99.90;;;;;;5116016;28;20100;-48
2022/06/13 10:09:28;;;;;;;4.32;1.35;;;20.00;99.90;;;;;;5115542;28;20432;-48
2022/06/13 10:12:03;;;;;;;3.45;0.90;;;20.10;97.40;;;;;;5115342;28;20039;-52
2022/06/13 10:14:48;;;;;;;3.03;1.02;;;20.40;96.80;;;;;;5116088;28;20035;-50
2022/06/13 10:17:34;;;;;;;6.13;1.10;;;21.00;99.90;;;;;;5115342;28;20048;-48
2022/06/13 10:20:19;;;;;;;3.17;1.20;;;21.40;99.90;;;;;;5097722;28;20059;-53
2022/06/13 10:22:54;;;;;;;3.97;1.08;;;20.60;97.60;;;;;;5115832;28;20043;-50
2022/06/13 10:25:40;;;;;;;5.68;1.20;;;20.00;96.80;;;;;;5115348;28;20047;-49
2022/06/13 10:28:15;;;;;;;2.70;1.00;;;19.60;98.20;;;;;;5107436;28;20059;-52
2022/06/13 10:31:29;;;;;;;5.45;1.42;;;19.30;99.90;;;;;;5115392;28;20128;-49
2022/06/13 10:34:04;;;;;;;5.40;1.30;;;19.30;99.90;;;;;;5072680;28;20055;-48
2022/06/13 10:36:52;;;;;;;4.85;1.30;;;19.70;99.90;;;;;;5072566;28;20063;-49
2022/06/13 10:39:24;;;;;;;3.95;1.52;;;19.90;99.90;;;;;;5072445;28;20080;-52
2022/06/13 10:41:53;;;;;;;4.68;1.35;;;19.60;99.90;;;;;;5071601;28;20127;-51
2022/06/13 10:44:20;;;;;;;4.68;1.20;;;19.20;99.90;;;;;;5055851;28;20083;-50
2022/06/13 10:47:03;;;;;;;2.10;0.90;;;18.90;99.80;;;;;;5072427;28;20053;-49
2022/06/13 10:49:36;;;;;;;5.55;1.20;;;19.20;97.70;;;;;;5072381;28;20052;-48
2022/06/13 10:52:10;;;;;;;5.50;1.13;;;19.50;97.00;;;;;;5077610;28;20061;-52
2022/06/13 10:54:43;;;;;;;5.75;1.25;;;19.90;98.30;;;;;;5092455;28;20048;-50
2022/06/13 10:57:13;;;;;;;3.03;0.82;;;19.40;97.00;;;;;;5092348;28;20546;-48
2022/06/13 10:59:40;;;;;;;4.43;1.20;;;19.30;98.40;;;;;;5092401;28;20044;-48
2022/06/13 11:02:24;;;;;;;3.37;1.20;;;19.30;97.90;;;;;;5092299;28;20062;-48
2022/06/13 11:05:12;;;;;;;5.50;1.38;;;19.80;98.70;;;;;;5092241;28;20402;-49
2022/06/13 11:07:58;;;;;;;4.50;1.20;;;20.00;97.40;;;;;;5102893;28;20059;-49
2022/06/13 11:10:40;;;;;;;4.40;1.30;;;19.60;96.30;;;;;;5114874;28;20090;-49
2022/06/13 11:13:13;;;;;;;3.85;1.00;;;19.70;98.40;;;;;;5096399;28;20101;-50
2022/06/13 11:22:39;;;;;;;5.22;1.15;;;20.10;97.30;;;;;;5114321;28;20052;-52
2022/06/13 11:25:10;;;;;;;4.72;1.10;;;20.40;98.20;;;;;;5114368;28;20047;-52
2022/06/13 11:27:40;;;;;;;4.03;0.90;;;20.40;96.50;;;;;;5114399;28;20040;-52
2022/06/13 11:30:25;;;;;;;4.47;1.30;;;20.30;96.00;;;;;;5096154;28;20044;-52
2022/06/13 11:33:00;;;;;;;5.82;1.55;;;20.00;95.10;;;;;;5114105;28;20483;-49
2022/06/13 11:35:30;;;;;;;7.78;1.42;;;20.40;96.80;;;;;;5114413;28;20088;-51
2022/06/13 11:38:00;;;;;;;4.07;1.10;;;20.90;93.60;;;;;;5114245;28;20100;-53
2022/06/13 11:40:26;;;;;;;4.95;1.27;;;21.00;94.70;;;;;;5114246;28;20058;-50
2022/06/13 11:42:52;;;;;;;4.70;1.30;;;20.70;94.70;;;;;;5113729;28;20063;-48
2022/06/13 11:45:25;;;;;;;5.90;1.85;;;21.10;93.80;;;;;;5114237;28;20473;-48
2022/06/13 11:47:51;;;;;;;4.72;1.50;;;21.40;92.40;;;;;;5114298;28;20051;-48
2022/06/13 11:50:25;;;;;;;5.28;1.48;;;21.80;94.60;;;;;;5114122;28;20051;-51
2022/06/13 11:55:50;;;;;;;5.18;1.40;;;21.20;90.80;;;;;;5113323;28;20071;-51
2022/06/13 11:58:23;;;;;;;5.57;1.27;;;20.60;90.40;;;;;;5113861;28;20130;-49
2022/06/13 12:00:52;;;;;;;3.13;1.10;;;20.00;89.40;;;;;;5113716;28;20046;-48
2022/06/13 12:03:27;;;;;;;5.07;1.15;;;19.70;91.40;;;;;;5113657;28;20043;-49
2022/06/13 12:05:58;;;;;;;3.13;1.23;;;19.20;93.00;;;;;;5112873;28;20082;-50
2022/06/13 12:08:27;;;;;;;6.63;1.35;;;18.60;96.10;;;;;;5095439;28;20545;-49
2022/06/13 12:11:21;;;;;;;5.03;1.45;;;18.50;99.20;;;;;;5113472;28;20079;-48
2022/06/13 12:13:48;;;;;;;4.88;1.42;;;18.30;99.90;;;;;;5112876;28;20051;-51
2022/06/13 12:16:27;;;;;;;6.10;1.42;;;18.30;99.90;;;;;;5113505;28;20115;-49
2022/06/13 12:19:16;;;;;;;5.00;1.38;;;18.40;99.90;;;;;;5095197;28;20118;-48
2022/06/13 12:21:55;;;;;;;5.18;1.60;;;19.00;99.90;;;;;;5113482;28;20074;-49
2022/06/13 12:24:49;;;;;;;6.80;1.75;;;19.70;98.00;;;;;;5113084;28;20097;-51
2022/06/13 12:27:21;;;;;;;7.43;1.90;;;19.20;96.50;;;;;;5102090;28;20489;-50
2022/06/13 12:30:18;;;;;;;5.68;1.63;;;19.60;97.20;;;;;;5112937;28;20439;-52
2022/06/13 12:32:55;;;;;;;5.28;1.20;;;19.40;96.10;;;;;;5113094;28;20390;-48
2022/06/13 12:35:31;;;;;;;;;;;19.20;96.70;;;;;;5113579;28;20048;-48
2022/06/13 12:38:21;;;;;;;5.53;1.30;;;19.40;96.30;;;;;;5113640;28;19927;-48
2022/06/13 12:40:53;;;;;;;5.50;1.48;;;19.60;95.60;;;;;;5094745;28;20044;-48
2022/06/13 12:43:32;;;;;;;6.43;1.33;;;20.00;95.60;;;;;;5113264;28;20040;-48
2022/06/13 12:46:25;;;;;;;6.25;1.50;;;19.80;94.80;;;;;;5113348;28;20090;-51
2022/06/13 12:49:30;;;;;;;4.00;1.05;;;19.60;95.20;;;;;;5113071;28;20032;-49
2022/06/13 12:52:10;;;;;;;6.68;1.33;;;19.40;95.20;;;;;;5112904;28;20105;-48
2022/06/13 12:54:47;;;;;;;6.32;1.40;;;19.50;95.80;;;;;;5113028;28;20127;-51
2022/06/13 12:57:53;;;;;;;7.75;1.50;;;20.00;97.10;;;;;;5113071;28;20557;-50
2022/06/13 13:00:28;;;;;;;;;;;20.50;97.00;;;;;;5113656;28;20043;-50
2022/06/13 13:03:06;;;;;;;5.57;1.40;;;20.90;96.10;;;;;;5112940;28;19924;-49
2022/06/13 13:05:50;;;;;;;5.15;1.30;;;21.30;95.00;;;;;;5114006;28;20404;-50
2022/06/13 13:08:34;;;;;;;5.05;1.27;;;21.40;94.60;;;;;;5116985;28;20378;-51
2022/06/13 13:11:16;;;;;;;5.35;1.35;;;21.80;93.00;;;;;;5098057;28;20044;-52
2022/06/13 13:14:22;;;;;;;5.88;1.30;;;22.00;91.70;;;;;;5116529;28;20048;-52
2022/06/13 13:17:32;;;;;;;7.15;1.30;;;21.80;90.50;;;;;;5116629;28;20056;-50
2022/06/13 13:20:13;;;;;;;6.35;1.25;;;21.50;87.80;;;;;;5116673;28;20058;-51
2022/06/13 13:22:49;;;;;;;6.47;1.70;;;21.60;85.10;;;;;;5116923;28;20490;-53
2022/06/13 13:25:21;;;;;;;3.33;1.20;;;21.30;88.00;;;;;;5098390;28;20051;-52
2022/06/13 13:28:05;;;;;;;4.10;1.30;;;21.50;85.70;;;;;;5116375;28;20370;-52
2022/06/13 13:30:53;;;;;;;6.88;1.63;;;20.50;83.60;;;;;;5117031;28;20043;-53
2022/06/13 13:33:49;;;;;;;4.50;1.33;;;20.10;84.10;;;;;;5108479;28;20083;-49
2022/06/13 13:36:22;;;;;;;3.47;1.17;;;20.20;84.80;;;;;;5116473;28;20119;-50
2022/06/13 13:38:53;;;;;;;4.70;1.40;;;20.60;84.50;;;;;;5116093;28;20048;-49
2022/06/13 13:41:27;;;;;;;4.13;1.02;;;20.80;84.00;;;;;;5116055;28;20040;-49
2022/06/13 13:44:00;;;;;;;4.30;1.45;;;20.70;87.20;;;;;;5097470;28;20047;-48
2022/06/13 13:46:40;;;;;;;5.90;1.33;;;20.50;90.10;;;;;;5098092;28;20059;-49
2022/06/13 13:49:22;;;;;;;8.50;1.58;;;19.90;89.70;;;;;;5116273;28;20047;-52
2022/06/13 13:52:03;;;;;;;3.95;1.10;;;19.70;90.60;;;;;;5115067;28;20545;-53